sensor_id;sensor_type;location;lat;lon;timestamp;temperature;humidity
38866;DHT22;62686;48.984;8.394;2024-02-28T00:00:30;5.60;99.90
38866;DHT22;62686;48.984;8.394;2024-02-28T00:02:59;5.60;99.90
38866;DHT22;62686;48.984;8.394;2024-02-28T00:05:28;5.60;99.90
38866;DHT22;62686;48.984;8.394;2024-02-28T00:07:57;5.40;99.90
38866;DHT22;62686;48.984;8.394;2024-02-28T00:10:28;5.30;99.90
38866;DHT22;62686;48.984;8.394;2024-02-28T00:12:56;5.20;99.90
38866;DHT22;62686;48.984;8.394;2024-02-28T00:15:25;5.10;99.90
38866;DHT22;62686;48.984;8.394;2024-02-28T00:17:54;5.00;99.90
38866;DHT22;62686;48.984;8.394;2024-02-28T00:20:24;5.00;99.90
38866;DHT22;62686;48.984;8.394;2024-02-28T00:22:55;5.00;99.90
38866;DHT22;62686;48.984;8.394;2024-02-28T00:25:23;5.00;99.90
38866;DHT22;62686;48.984;8.394;2024-02-28T00:27:52;4.90;99.90
38866;DHT22;62686;48.984;8.394;2024-02-28T00:30:20;4.90;99.90
38866;DHT22;62686;48.984;8.394;2024-02-28T00:32:49;4.90;99.90
38866;DHT22;62686;48.984;8.394;2024-02-28T00:35:17;4.90;99.90
38866;DHT22;62686;48.984;8.394;2024-02-28T00:37:45;5.00;99.90
38866;DHT22;62686;48.984;8.394;2024-02-28T00:40:15;5.00;99.90
38866;DHT22;62686;48.984;8.394;2024-02-28T00:42:43;4.90;99.90
38866;DHT22;62686;48.984;8.394;2024-02-28T00:45:13;4.80;99.90
38866;DHT22;62686;48.984;8.394;2024-02-28T00:47:41;4.80;99.90
38866;DHT22;62686;48.984;8.394;2024-02-28T00:50:09;4.70;99.90
38866;DHT22;62686;48.984;8.394;2024-02-28T00:52:38;4.60;99.90
38866;DHT22;62686;48.984;8.394;2024-02-28T00:55:07;4.60;99.90
38866;DHT22;62686;48.984;8.394;2024-02-28T00:57:37;4.40;99.90
38866;DHT22;62686;48.984;8.394;2024-02-28T01:00:06;4.40;99.90
38866;DHT22;62686;48.984;8.394;2024-02-28T01:02:36;4.40;99.90
38866;DHT22;62686;48.984;8.394;2024-02-28T01:05:05;4.30;99.90
38866;DHT22;62686;48.984;8.394;2024-02-28T01:07:34;4.30;99.90
38866;DHT22;62686;48.984;8.394;2024-02-28T01:10:03;4.30;99.90
38866;DHT22;62686;48.984;8.394;2024-02-28T01:12:32;4.20;99.90
38866;DHT22;62686;48.984;8.394;2024-02-28T01:15:02;4.10;99.90
38866;DHT22;62686;48.984;8.394;2024-02-28T01:17:30;4.20;99.90
38866;DHT22;62686;48.984;8.394;2024-02-28T01:19:59;4.10;99.90
38866;DHT22;62686;48.984;8.394;2024-02-28T01:22:27;4.00;99.90
38866;DHT22;62686;48.984;8.394;2024-02-28T01:24:56;4.00;99.90
38866;DHT22;62686;48.984;8.394;2024-02-28T01:27:24;3.90;99.90
38866;DHT22;62686;48.984;8.394;2024-02-28T01:29:52;3.80;99.90
38866;DHT22;62686;48.984;8.394;2024-02-28T01:32:22;3.70;99.90
38866;DHT22;62686;48.984;8.394;2024-02-28T01:34:51;3.60;99.90
38866;DHT22;62686;48.984;8.394;2024-02-28T01:37:19;3.50;99.90
38866;DHT22;62686;48.984;8.394;2024-02-28T01:39:47;3.40;99.90
38866;DHT22;62686;48.984;8.394;2024-02-28T01:42:16;3.30;99.90
38866;DHT22;62686;48.984;8.394;2024-02-28T01:44:46;3.20;99.90
38866;DHT22;62686;48.984;8.394;2024-02-28T01:47:16;3.10;99.90
38866;DHT22;62686;48.984;8.394;2024-02-28T01:49:47;3.10;99.90
38866;DHT22;62686;48.984;8.394;2024-02-28T01:52:18;3.00;99.90
38866;DHT22;62686;48.984;8.394;2024-02-28T01:54:46;2.90;99.90
38866;DHT22;62686;48.984;8.394;2024-02-28T01:57:15;2.90;99.90
38866;DHT22;62686;48.984;8.394;2024-02-28T01:59:44;2.80;99.90
38866;DHT22;62686;48.984;8.394;2024-02-28T02:02:13;2.80;99.90
38866;DHT22;62686;48.984;8.394;2024-02-28T02:04:42;2.70;99.90
38866;DHT22;62686;48.984;8.394;2024-02-28T02:07:12;2.70;99.90
38866;DHT22;62686;48.984;8.394;2024-02-28T02:09:40;2.60;99.90
38866;DHT22;62686;48.984;8.394;2024-02-28T02:12:09;2.70;99.90
38866;DHT22;62686;48.984;8.394;2024-02-28T02:14:37;2.80;99.90
38866;DHT22;62686;48.984;8.394;2024-02-28T02:17:05;2.90;99.90
38866;DHT22;62686;48.984;8.394;2024-02-28T02:19:34;2.90;99.90
38866;DHT22;62686;48.984;8.394;2024-02-28T02:22:03;2.90;99.90
38866;DHT22;62686;48.984;8.394;2024-02-28T02:24:35;2.90;99.90
38866;DHT22;62686;48.984;8.394;2024-02-28T02:27:03;2.90;99.90
38866;DHT22;62686;48.984;8.394;2024-02-28T02:29:32;3.00;99.90
38866;DHT22;62686;48.984;8.394;2024-02-28T02:32:00;3.00;99.90
38866;DHT22;62686;48.984;8.394;2024-02-28T02:34:29;3.10;99.90
38866;DHT22;62686;48.984;8.394;2024-02-28T02:36:57;3.10;99.90
38866;DHT22;62686;48.984;8.394;2024-02-28T02:39:26;3.00;99.90
38866;DHT22;62686;48.984;8.394;2024-02-28T02:41:55;3.00;99.90
38866;DHT22;62686;48.984;8.394;2024-02-28T02:44:24;3.00;99.90
38866;DHT22;62686;48.984;8.394;2024-02-28T02:46:52;3.00;99.90
38866;DHT22;62686;48.984;8.394;2024-02-28T02:49:21;3.10;99.90
38866;DHT22;62686;48.984;8.394;2024-02-28T02:51:49;3.20;99.90
38866;DHT22;62686;48.984;8.394;2024-02-28T02:54:18;3.30;99.90
38866;DHT22;62686;48.984;8.394;2024-02-28T02:56:46;3.40;99.90
38866;DHT22;62686;48.984;8.394;2024-02-28T02:59:16;3.50;99.90
38866;DHT22;62686;48.984;8.394;2024-02-28T03:01:47;3.60;99.90
38866;DHT22;62686;48.984;8.394;2024-02-28T03:04:16;3.70;99.90
38866;DHT22;62686;48.984;8.394;2024-02-28T03:06:45;3.90;99.90
38866;DHT22;62686;48.984;8.394;2024-02-28T03:09:13;4.00;99.90
38866;DHT22;62686;48.984;8.394;2024-02-28T03:11:41;4.20;99.90
38866;DHT22;62686;48.984;8.394;2024-02-28T03:14:10;4.30;99.90
38866;DHT22;62686;48.984;8.394;2024-02-28T03:16:42;4.40;99.90
38866;DHT22;62686;48.984;8.394;2024-02-28T03:19:11;4.40;99.90
38866;DHT22;62686;48.984;8.394;2024-02-28T03:21:39;4.50;99.90
38866;DHT22;62686;48.984;8.394;2024-02-28T03:24:08;4.60;99.90
38866;DHT22;62686;48.984;8.394;2024-02-28T03:26:36;4.70;99.90
38866;DHT22;62686;48.984;8.394;2024-02-28T03:29:05;4.70;99.90
38866;DHT22;62686;48.984;8.394;2024-02-28T03:31:33;4.70;99.90
38866;DHT22;62686;48.984;8.394;2024-02-28T03:34:03;4.80;99.90
38866;DHT22;62686;48.984;8.394;2024-02-28T03:36:31;4.80;99.90
38866;DHT22;62686;48.984;8.394;2024-02-28T03:39:00;4.80;99.90
38866;DHT22;62686;48.984;8.394;2024-02-28T03:41:28;4.80;99.90
38866;DHT22;62686;48.984;8.394;2024-02-28T03:43:57;4.80;99.90
38866;DHT22;62686;48.984;8.394;2024-02-28T03:46:25;4.70;99.90
38866;DHT22;62686;48.984;8.394;2024-02-28T03:48:53;4.80;99.90
38866;DHT22;62686;48.984;8.394;2024-02-28T03:51:23;4.70;99.90
38866;DHT22;62686;48.984;8.394;2024-02-28T03:53:52;4.60;99.90
38866;DHT22;62686;48.984;8.394;2024-02-28T03:56:23;4.50;99.90
38866;DHT22;62686;48.984;8.394;2024-02-28T03:58:52;4.40;99.90
38866;DHT22;62686;48.984;8.394;2024-02-28T04:01:20;4.40;99.90
38866;DHT22;62686;48.984;8.394;2024-02-28T04:03:49;4.20;99.90
38866;DHT22;62686;48.984;8.394;2024-02-28T04:06:17;4.10;99.90
38866;DHT22;62686;48.984;8.394;2024-02-28T04:08:47;4.10;99.90
38866;DHT22;62686;48.984;8.394;2024-02-28T04:11:15;4.10;99.90
38866;DHT22;62686;48.984;8.394;2024-02-28T04:13:44;4.00;99.90
38866;DHT22;62686;48.984;8.394;2024-02-28T04:16:12;4.10;99.90
38866;DHT22;62686;48.984;8.394;2024-02-28T04:18:40;4.10;99.90
38866;DHT22;62686;48.984;8.394;2024-02-28T04:21:10;4.10;99.90
38866;DHT22;62686;48.984;8.394;2024-02-28T04:23:38;4.20;99.90
38866;DHT22;62686;48.984;8.394;2024-02-28T04:26:09;4.30;99.90
38866;DHT22;62686;48.984;8.394;2024-02-28T04:28:38;4.40;99.90
38866;DHT22;62686;48.984;8.394;2024-02-28T04:31:06;4.40;99.90
38866;DHT22;62686;48.984;8.394;2024-02-28T04:33:36;4.50;99.90
38866;DHT22;62686;48.984;8.394;2024-02-28T04:36:05;4.50;99.90
38866;DHT22;62686;48.984;8.394;2024-02-28T04:38:33;4.60;99.90
38866;DHT22;62686;48.984;8.394;2024-02-28T04:41:02;4.60;99.90
38866;DHT22;62686;48.984;8.394;2024-02-28T04:43:32;4.70;99.90
38866;DHT22;62686;48.984;8.394;2024-02-28T04:46:01;4.70;99.90
38866;DHT22;62686;48.984;8.394;2024-02-28T04:48:31;4.80;99.90
38866;DHT22;62686;48.984;8.394;2024-02-28T04:51:00;4.70;99.90
38866;DHT22;62686;48.984;8.394;2024-02-28T04:53:29;4.80;99.90
38866;DHT22;62686;48.984;8.394;2024-02-28T04:55:57;4.80;99.90
38866;DHT22;62686;48.984;8.394;2024-02-28T04:58:26;4.80;99.90
38866;DHT22;62686;48.984;8.394;2024-02-28T05:00:56;4.80;99.90
38866;DHT22;62686;48.984;8.394;2024-02-28T05:03:24;4.80;99.90
38866;DHT22;62686;48.984;8.394;2024-02-28T05:05:53;4.80;99.90
38866;DHT22;62686;48.984;8.394;2024-02-28T05:08:21;4.70;99.90
38866;DHT22;62686;48.984;8.394;2024-02-28T05:10:50;4.80;99.90
38866;DHT22;62686;48.984;8.394;2024-02-28T05:13:19;4.90;99.90
38866;DHT22;62686;48.984;8.394;2024-02-28T05:15:49;5.00;99.90
38866;DHT22;62686;48.984;8.394;2024-02-28T05:18:18;5.00;99.90
38866;DHT22;62686;48.984;8.394;2024-02-28T05:20:47;4.90;99.90
38866;DHT22;62686;48.984;8.394;2024-02-28T05:23:15;4.90;99.90
38866;DHT22;62686;48.984;8.394;2024-02-28T05:25:44;4.80;99.90
38866;DHT22;62686;48.984;8.394;2024-02-28T05:28:13;4.70;99.90
38866;DHT22;62686;48.984;8.394;2024-02-28T05:30:42;4.50;99.90
38866;DHT22;62686;48.984;8.394;2024-02-28T05:33:11;4.40;99.90
38866;DHT22;62686;48.984;8.394;2024-02-28T05:35:41;4.30;99.90
38866;DHT22;62686;48.984;8.394;2024-02-28T05:38:10;4.20;99.90
38866;DHT22;62686;48.984;8.394;2024-02-28T05:40:38;4.20;99.90
38866;DHT22;62686;48.984;8.394;2024-02-28T05:43:06;4.10;99.90
38866;DHT22;62686;48.984;8.394;2024-02-28T05:45:35;4.10;99.90
38866;DHT22;62686;48.984;8.394;2024-02-28T05:48:04;4.00;99.90
38866;DHT22;62686;48.984;8.394;2024-02-28T05:50:33;4.00;99.90
38866;DHT22;62686;48.984;8.394;2024-02-28T05:53:03;4.00;99.90
38866;DHT22;62686;48.984;8.394;2024-02-28T05:55:31;4.00;99.90
38866;DHT22;62686;48.984;8.394;2024-02-28T05:58:00;4.00;99.90
38866;DHT22;62686;48.984;8.394;2024-02-28T06:00:29;4.00;99.90
38866;DHT22;62686;48.984;8.394;2024-02-28T06:02:57;4.00;99.90
38866;DHT22;62686;48.984;8.394;2024-02-28T06:05:26;4.00;99.90
38866;DHT22;62686;48.984;8.394;2024-02-28T06:07:54;3.90;99.90
38866;DHT22;62686;48.984;8.394;2024-02-28T06:10:24;3.70;99.90
38866;DHT22;62686;48.984;8.394;2024-02-28T06:12:53;3.60;99.90
38866;DHT22;62686;48.984;8.394;2024-02-28T06:15:21;3.50;99.90
38866;DHT22;62686;48.984;8.394;2024-02-28T06:17:50;3.40;99.90
38866;DHT22;62686;48.984;8.394;2024-02-28T06:20:18;3.20;99.90
38866;DHT22;62686;48.984;8.394;2024-02-28T06:22:46;3.20;99.90
38866;DHT22;62686;48.984;8.394;2024-02-28T06:25:15;3.20;99.90
38866;DHT22;62686;48.984;8.394;2024-02-28T06:27:48;3.10;99.90
38866;DHT22;62686;48.984;8.394;2024-02-28T06:30:17;3.10;99.90
38866;DHT22;62686;48.984;8.394;2024-02-28T06:32:45;3.00;99.90
38866;DHT22;62686;48.984;8.394;2024-02-28T06:35:14;2.90;99.90
38866;DHT22;62686;48.984;8.394;2024-02-28T06:37:43;2.90;99.90
38866;DHT22;62686;48.984;8.394;2024-02-28T06:40:16;3.10;99.90
38866;DHT22;62686;48.984;8.394;2024-02-28T06:42:45;3.20;99.90
38866;DHT22;62686;48.984;8.394;2024-02-28T06:45:15;3.30;99.90
38866;DHT22;62686;48.984;8.394;2024-02-28T06:47:44;3.40;99.90
38866;DHT22;62686;48.984;8.394;2024-02-28T06:50:13;3.50;99.90
38866;DHT22;62686;48.984;8.394;2024-02-28T06:52:41;3.50;99.90
38866;DHT22;62686;48.984;8.394;2024-02-28T06:55:10;3.60;99.90
38866;DHT22;62686;48.984;8.394;2024-02-28T06:57:41;3.60;99.90
38866;DHT22;62686;48.984;8.394;2024-02-28T07:00:11;3.70;99.90
38866;DHT22;62686;48.984;8.394;2024-02-28T07:02:43;3.70;99.90
38866;DHT22;62686;48.984;8.394;2024-02-28T07:05:12;3.70;99.90
38866;DHT22;62686;48.984;8.394;2024-02-28T07:07:41;3.80;99.90
38866;DHT22;62686;48.984;8.394;2024-02-28T07:10:10;3.80;99.90
38866;DHT22;62686;48.984;8.394;2024-02-28T07:12:39;3.80;99.90
38866;DHT22;62686;48.984;8.394;2024-02-28T07:15:07;3.90;99.90
38866;DHT22;62686;48.984;8.394;2024-02-28T07:17:36;4.00;99.90
38866;DHT22;62686;48.984;8.394;2024-02-28T07:20:07;4.10;99.90
38866;DHT22;62686;48.984;8.394;2024-02-28T07:22:36;4.10;99.90
38866;DHT22;62686;48.984;8.394;2024-02-28T07:25:05;4.30;99.90
38866;DHT22;62686;48.984;8.394;2024-02-28T07:27:34;4.40;99.90
38866;DHT22;62686;48.984;8.394;2024-02-28T07:30:03;4.60;99.90
38866;DHT22;62686;48.984;8.394;2024-02-28T07:32:33;4.80;99.90
38866;DHT22;62686;48.984;8.394;2024-02-28T07:35:04;5.10;99.90
38866;DHT22;62686;48.984;8.394;2024-02-28T07:37:35;5.30;99.90
38866;DHT22;62686;48.984;8.394;2024-02-28T07:40:05;5.50;99.90
38866;DHT22;62686;48.984;8.394;2024-02-28T07:42:35;5.80;99.90
38866;DHT22;62686;48.984;8.394;2024-02-28T07:45:04;5.80;99.90
38866;DHT22;62686;48.984;8.394;2024-02-28T07:47:35;5.80;99.90
38866;DHT22;62686;48.984;8.394;2024-02-28T07:50:06;5.80;99.90
38866;DHT22;62686;48.984;8.394;2024-02-28T07:52:35;5.70;99.90
38866;DHT22;62686;48.984;8.394;2024-02-28T07:55:05;5.80;99.90
38866;DHT22;62686;48.984;8.394;2024-02-28T07:57:34;5.80;99.90
38866;DHT22;62686;48.984;8.394;2024-02-28T08:00:02;6.00;99.90
38866;DHT22;62686;48.984;8.394;2024-02-28T08:02:31;6.20;99.90
38866;DHT22;62686;48.984;8.394;2024-02-28T08:05:00;6.30;99.90
38866;DHT22;62686;48.984;8.394;2024-02-28T08:07:30;6.50;99.90
38866;DHT22;62686;48.984;8.394;2024-02-28T08:09:58;6.70;99.90
38866;DHT22;62686;48.984;8.394;2024-02-28T08:12:47;6.80;99.90
38866;DHT22;62686;48.984;8.394;2024-02-28T08:15:16;6.70;99.90
38866;DHT22;62686;48.984;8.394;2024-02-28T08:17:47;6.60;99.90
38866;DHT22;62686;48.984;8.394;2024-02-28T08:20:15;6.80;99.90
38866;DHT22;62686;48.984;8.394;2024-02-28T08:22:44;6.80;99.90
38866;DHT22;62686;48.984;8.394;2024-02-28T08:25:13;6.80;99.90
38866;DHT22;62686;48.984;8.394;2024-02-28T08:27:43;7.00;99.90
38866;DHT22;62686;48.984;8.394;2024-02-28T08:32:54;6.90;99.90
38866;DHT22;62686;48.984;8.394;2024-02-28T09:42:27;8.90;99.90
38866;DHT22;62686;48.984;8.394;2024-02-28T09:44:56;9.10;99.90
38866;DHT22;62686;48.984;8.394;2024-02-28T09:47:28;9.30;99.90
38866;DHT22;62686;48.984;8.394;2024-02-28T09:49:58;9.30;99.90
38866;DHT22;62686;48.984;8.394;2024-02-28T09:52:29;9.50;99.90
38866;DHT22;62686;48.984;8.394;2024-02-28T09:54:58;9.50;99.90
38866;DHT22;62686;48.984;8.394;2024-02-28T09:57:28;9.40;99.90
38866;DHT22;62686;48.984;8.394;2024-02-28T09:59:58;9.20;99.90
38866;DHT22;62686;48.984;8.394;2024-02-28T10:02:29;9.20;99.90
38866;DHT22;62686;48.984;8.394;2024-02-28T10:04:58;9.20;99.90
38866;DHT22;62686;48.984;8.394;2024-02-28T10:07:27;9.30;99.90
38866;DHT22;62686;48.984;8.394;2024-02-28T10:09:56;9.20;99.90
38866;DHT22;62686;48.984;8.394;2024-02-28T10:12:24;9.20;99.90
38866;DHT22;62686;48.984;8.394;2024-02-28T10:14:54;9.20;99.90
38866;DHT22;62686;48.984;8.394;2024-02-28T10:17:23;9.20;99.90
38866;DHT22;62686;48.984;8.394;2024-02-28T10:19:53;9.20;99.90
38866;DHT22;62686;48.984;8.394;2024-02-28T10:22:21;9.40;99.90
38866;DHT22;62686;48.984;8.394;2024-02-28T10:24:56;9.50;99.90
38866;DHT22;62686;48.984;8.394;2024-02-28T10:27:25;9.70;99.90
38866;DHT22;62686;48.984;8.394;2024-02-28T10:29:57;10.00;99.90
38866;DHT22;62686;48.984;8.394;2024-02-28T10:32:25;10.20;99.90
38866;DHT22;62686;48.984;8.394;2024-02-28T10:34:54;10.50;99.90
38866;DHT22;62686;48.984;8.394;2024-02-28T10:37:24;10.80;99.90
38866;DHT22;62686;48.984;8.394;2024-02-28T10:39:54;11.00;99.90
38866;DHT22;62686;48.984;8.394;2024-02-28T10:42:25;10.70;99.90
38866;DHT22;62686;48.984;8.394;2024-02-28T10:44:57;10.30;99.90
38866;DHT22;62686;48.984;8.394;2024-02-28T10:47:29;10.00;99.90
38866;DHT22;62686;48.984;8.394;2024-02-28T10:50:00;10.00;99.90
38866;DHT22;62686;48.984;8.394;2024-02-28T10:52:29;10.30;99.90
38866;DHT22;62686;48.984;8.394;2024-02-28T10:55:02;10.50;99.90
38866;DHT22;62686;48.984;8.394;2024-02-28T10:57:36;10.80;99.90
38866;DHT22;62686;48.984;8.394;2024-02-28T11:00:07;11.00;99.90
38866;DHT22;62686;48.984;8.394;2024-02-28T11:02:37;11.10;99.90
38866;DHT22;62686;48.984;8.394;2024-02-28T11:05:05;11.20;99.90
38866;DHT22;62686;48.984;8.394;2024-02-28T11:07:34;11.10;99.90
38866;DHT22;62686;48.984;8.394;2024-02-28T11:10:05;11.10;99.90
38866;DHT22;62686;48.984;8.394;2024-02-28T11:12:34;10.80;99.90
38866;DHT22;62686;48.984;8.394;2024-02-28T11:15:06;10.70;99.90
38866;DHT22;62686;48.984;8.394;2024-02-28T11:17:44;10.60;99.90
38866;DHT22;62686;48.984;8.394;2024-02-28T11:20:13;10.40;99.90
38866;DHT22;62686;48.984;8.394;2024-02-28T11:22:42;10.40;99.90
38866;DHT22;62686;48.984;8.394;2024-02-28T11:25:10;10.50;99.90
38866;DHT22;62686;48.984;8.394;2024-02-28T11:27:46;10.80;99.90
38866;DHT22;62686;48.984;8.394;2024-02-28T11:30:16;11.10;99.90
38866;DHT22;62686;48.984;8.394;2024-02-28T11:32:45;11.30;99.90
38866;DHT22;62686;48.984;8.394;2024-02-28T11:35:13;11.80;99.90
38866;DHT22;62686;48.984;8.394;2024-02-28T11:37:45;12.10;99.90
38866;DHT22;62686;48.984;8.394;2024-02-28T11:40:14;12.20;99.90
38866;DHT22;62686;48.984;8.394;2024-02-28T11:42:43;12.10;99.90
38866;DHT22;62686;48.984;8.394;2024-02-28T11:45:11;11.90;99.90
38866;DHT22;62686;48.984;8.394;2024-02-28T11:47:41;11.60;99.90
38866;DHT22;62686;48.984;8.394;2024-02-28T11:50:09;11.20;99.90
38866;DHT22;62686;48.984;8.394;2024-02-28T11:52:39;10.80;99.90
38866;DHT22;62686;48.984;8.394;2024-02-28T11:55:08;11.10;99.90
38866;DHT22;62686;48.984;8.394;2024-02-28T11:57:37;11.10;99.90
38866;DHT22;62686;48.984;8.394;2024-02-28T12:08:12;14.10;99.90
38866;DHT22;62686;48.984;8.394;2024-02-28T12:10:42;13.40;99.90
38866;DHT22;62686;48.984;8.394;2024-02-28T12:13:10;12.60;99.90
38866;DHT22;62686;48.984;8.394;2024-02-28T12:23:47;16.10;99.90
38866;DHT22;62686;48.984;8.394;2024-02-28T13:14:52;14.90;99.90
38866;DHT22;62686;48.984;8.394;2024-02-28T13:17:23;15.30;99.90
38866;DHT22;62686;48.984;8.394;2024-02-28T13:19:51;15.40;99.90
38866;DHT22;62686;48.984;8.394;2024-02-28T13:22:20;15.60;99.90
38866;DHT22;62686;48.984;8.394;2024-02-28T13:24:48;15.90;99.90
38866;DHT22;62686;48.984;8.394;2024-02-28T13:27:18;16.10;99.90
38866;DHT22;62686;48.984;8.394;2024-02-28T13:29:47;16.50;99.90
38866;DHT22;62686;48.984;8.394;2024-02-28T13:32:16;17.00;99.90
38866;DHT22;62686;48.984;8.394;2024-02-28T13:34:45;17.40;99.90
38866;DHT22;62686;48.984;8.394;2024-02-28T13:37:15;17.40;99.90
38866;DHT22;62686;48.984;8.394;2024-02-28T13:39:43;17.40;99.90
38866;DHT22;62686;48.984;8.394;2024-02-28T13:42:12;17.10;99.90
38866;DHT22;62686;48.984;8.394;2024-02-28T13:44:41;17.10;99.90
38866;DHT22;62686;48.984;8.394;2024-02-28T13:47:09;17.50;99.90
38866;DHT22;62686;48.984;8.394;2024-02-28T13:49:41;17.60;99.90
38866;DHT22;62686;48.984;8.394;2024-02-28T13:52:10;18.20;99.90
38866;DHT22;62686;48.984;8.394;2024-02-28T13:54:38;18.50;99.90
38866;DHT22;62686;48.984;8.394;2024-02-28T13:57:07;18.20;99.90
38866;DHT22;62686;48.984;8.394;2024-02-28T13:59:36;17.90;99.90
38866;DHT22;62686;48.984;8.394;2024-02-28T14:02:05;17.90;99.90
38866;DHT22;62686;48.984;8.394;2024-02-28T14:04:35;17.80;99.90
38866;DHT22;62686;48.984;8.394;2024-02-28T14:07:06;17.20;99.90
38866;DHT22;62686;48.984;8.394;2024-02-28T14:09:34;17.00;99.90
38866;DHT22;62686;48.984;8.394;2024-02-28T14:12:04;16.90;99.90
38866;DHT22;62686;48.984;8.394;2024-02-28T14:14:32;17.10;99.90
38866;DHT22;62686;48.984;8.394;2024-02-28T14:17:01;17.70;99.90
38866;DHT22;62686;48.984;8.394;2024-02-28T14:19:30;18.10;99.90
38866;DHT22;62686;48.984;8.394;2024-02-28T14:21:59;18.30;99.90
38866;DHT22;62686;48.984;8.394;2024-02-28T14:24:28;18.10;99.90
38866;DHT22;62686;48.984;8.394;2024-02-28T14:26:57;17.60;99.90
38866;DHT22;62686;48.984;8.394;2024-02-28T14:29:25;16.80;99.90
38866;DHT22;62686;48.984;8.394;2024-02-28T14:31:56;16.40;99.90
38866;DHT22;62686;48.984;8.394;2024-02-28T14:34:24;16.50;99.90
38866;DHT22;62686;48.984;8.394;2024-02-28T14:36:52;16.50;99.90
38866;DHT22;62686;48.984;8.394;2024-02-28T14:39:21;16.50;99.90
38866;DHT22;62686;48.984;8.394;2024-02-28T14:41:51;16.60;99.90
38866;DHT22;62686;48.984;8.394;2024-02-28T14:44:20;16.70;99.90
38866;DHT22;62686;48.984;8.394;2024-02-28T14:46:48;16.50;99.90
38866;DHT22;62686;48.984;8.394;2024-02-28T14:49:18;16.10;99.90
38866;DHT22;62686;48.984;8.394;2024-02-28T14:51:47;15.20;99.90
38866;DHT22;62686;48.984;8.394;2024-02-28T14:54:16;14.30;99.90
38866;DHT22;62686;48.984;8.394;2024-02-28T14:56:46;13.50;99.90
38866;DHT22;62686;48.984;8.394;2024-02-28T14:59:17;13.00;99.90
38866;DHT22;62686;48.984;8.394;2024-02-28T15:01:45;12.40;99.90
38866;DHT22;62686;48.984;8.394;2024-02-28T15:04:13;12.10;99.90
38866;DHT22;62686;48.984;8.394;2024-02-28T15:06:42;11.70;99.90
38866;DHT22;62686;48.984;8.394;2024-02-28T15:09:10;11.50;99.90
38866;DHT22;62686;48.984;8.394;2024-02-28T15:11:39;11.30;99.90
38866;DHT22;62686;48.984;8.394;2024-02-28T15:14:07;11.20;99.90
38866;DHT22;62686;48.984;8.394;2024-02-28T15:16:37;11.10;99.90
38866;DHT22;62686;48.984;8.394;2024-02-28T15:19:06;11.10;99.90
38866;DHT22;62686;48.984;8.394;2024-02-28T15:21:34;11.00;99.90
38866;DHT22;62686;48.984;8.394;2024-02-28T15:24:03;11.00;99.90
38866;DHT22;62686;48.984;8.394;2024-02-28T15:26:32;10.90;99.90
38866;DHT22;62686;48.984;8.394;2024-02-28T15:58:47;10.60;99.90
38866;DHT22;62686;48.984;8.394;2024-02-28T16:01:16;10.40;99.90
38866;DHT22;62686;48.984;8.394;2024-02-28T16:03:45;10.40;99.90
38866;DHT22;62686;48.984;8.394;2024-02-28T16:06:40;10.30;99.90
38866;DHT22;62686;48.984;8.394;2024-02-28T16:09:09;10.20;99.90
38866;DHT22;62686;48.984;8.394;2024-02-28T16:11:37;10.10;99.90
38866;DHT22;62686;48.984;8.394;2024-02-28T16:14:07;10.00;99.90
38866;DHT22;62686;48.984;8.394;2024-02-28T16:16:36;9.90;99.90
38866;DHT22;62686;48.984;8.394;2024-02-28T16:19:04;9.90;99.90
38866;DHT22;62686;48.984;8.394;2024-02-28T16:21:37;9.80;99.90
38866;DHT22;62686;48.984;8.394;2024-02-28T16:24:06;9.70;99.90
38866;DHT22;62686;48.984;8.394;2024-02-28T16:26:34;9.60;99.90
38866;DHT22;62686;48.984;8.394;2024-02-28T16:29:03;9.40;99.90
38866;DHT22;62686;48.984;8.394;2024-02-28T16:31:34;9.30;99.90
38866;DHT22;62686;48.984;8.394;2024-02-28T16:34:02;9.20;99.90
38866;DHT22;62686;48.984;8.394;2024-02-28T16:36:31;9.20;99.90
38866;DHT22;62686;48.984;8.394;2024-02-28T16:38:59;9.20;99.90
38866;DHT22;62686;48.984;8.394;2024-02-28T16:44:18;9.00;99.90
38866;DHT22;62686;48.984;8.394;2024-02-28T16:46:48;8.90;99.90
38866;DHT22;62686;48.984;8.394;2024-02-28T17:43:44;6.30;99.90
38866;DHT22;62686;48.984;8.394;2024-02-28T17:46:12;6.20;99.90
38866;DHT22;62686;48.984;8.394;2024-02-28T17:48:41;6.20;99.90
38866;DHT22;62686;48.984;8.394;2024-02-28T17:51:10;6.20;99.90
38866;DHT22;62686;48.984;8.394;2024-02-28T18:06:54;5.70;99.90
38866;DHT22;62686;48.984;8.394;2024-02-28T18:09:23;5.60;99.90
38866;DHT22;62686;48.984;8.394;2024-02-28T18:11:53;5.50;99.90
38866;DHT22;62686;48.984;8.394;2024-02-28T18:14:21;5.40;99.90
38866;DHT22;62686;48.984;8.394;2024-02-28T18:16:51;5.50;99.90
38866;DHT22;62686;48.984;8.394;2024-02-28T18:19:20;5.50;99.90
38866;DHT22;62686;48.984;8.394;2024-02-28T18:21:49;5.40;99.90
38866;DHT22;62686;48.984;8.394;2024-02-28T18:24:19;5.40;99.90
38866;DHT22;62686;48.984;8.394;2024-02-28T18:26:47;5.30;99.90
38866;DHT22;62686;48.984;8.394;2024-02-28T18:29:15;5.30;99.90
38866;DHT22;62686;48.984;8.394;2024-02-28T18:31:44;5.40;99.90
38866;DHT22;62686;48.984;8.394;2024-02-28T18:34:12;5.40;99.90
38866;DHT22;62686;48.984;8.394;2024-02-28T18:36:41;5.30;99.90
38866;DHT22;62686;48.984;8.394;2024-02-28T18:39:09;5.20;99.90
38866;DHT22;62686;48.984;8.394;2024-02-28T18:41:39;5.20;99.90
38866;DHT22;62686;48.984;8.394;2024-02-28T18:44:08;5.10;99.90
38866;DHT22;62686;48.984;8.394;2024-02-28T18:46:36;5.10;99.90
38866;DHT22;62686;48.984;8.394;2024-02-28T18:49:04;4.90;99.90
38866;DHT22;62686;48.984;8.394;2024-02-28T18:51:34;4.80;99.90
38866;DHT22;62686;48.984;8.394;2024-02-28T18:54:03;4.70;99.90
38866;DHT22;62686;48.984;8.394;2024-02-28T18:56:31;4.70;99.90
38866;DHT22;62686;48.984;8.394;2024-02-28T18:59:01;4.70;99.90
38866;DHT22;62686;48.984;8.394;2024-02-28T19:01:31;4.60;99.90
38866;DHT22;62686;48.984;8.394;2024-02-28T19:04:00;4.40;99.90
38866;DHT22;62686;48.984;8.394;2024-02-28T19:06:28;4.40;99.90
38866;DHT22;62686;48.984;8.394;2024-02-28T19:08:57;4.30;99.90
38866;DHT22;62686;48.984;8.394;2024-02-28T19:11:25;4.20;99.90
38866;DHT22;62686;48.984;8.394;2024-02-28T19:13:54;4.20;99.90
38866;DHT22;62686;48.984;8.394;2024-02-28T19:16:25;4.10;99.90
38866;DHT22;62686;48.984;8.394;2024-02-28T19:18:54;4.00;99.90
38866;DHT22;62686;48.984;8.394;2024-02-28T19:21:22;4.00;99.90
38866;DHT22;62686;48.984;8.394;2024-02-28T19:23:51;3.90;99.90
38866;DHT22;62686;48.984;8.394;2024-02-28T19:26:19;3.80;99.90
38866;DHT22;62686;48.984;8.394;2024-02-28T19:28:47;3.70;99.90
38866;DHT22;62686;48.984;8.394;2024-02-28T19:31:16;3.60;99.90
38866;DHT22;62686;48.984;8.394;2024-02-28T19:33:46;3.50;99.90
38866;DHT22;62686;48.984;8.394;2024-02-28T19:36:14;3.50;99.90
38866;DHT22;62686;48.984;8.394;2024-02-28T19:38:43;3.50;99.90
38866;DHT22;62686;48.984;8.394;2024-02-28T19:41:11;3.40;99.90
38866;DHT22;62686;48.984;8.394;2024-02-28T19:43:40;3.40;99.90
38866;DHT22;62686;48.984;8.394;2024-02-28T19:46:09;3.30;99.90
38866;DHT22;62686;48.984;8.394;2024-02-28T19:48:37;3.30;99.90